Lupton, Michigan
Current Conditions -  °F | °C
As of 6:53 PM on Friday 28 Nov 2014 (Local Time) from KOSC Reporting Station
Light Snow Light Snow  
Wind Chill: 22°   Ceiling: 1800
Heat Index: 22°   Visibility: 10mi
Dew Point: 20°   Wind: 0mph
Humidity: 90%   Direction: NA
Pressure: 30.12"   Gusts: NA
Location:  44.43°N, 84.03°W
Report Text: KOSC 282353Z AUTO 00000KT 10SM -SN OVC018 M05/M06 A3012 RMK AO2 T10531067
Loading
Personal Weather Stations






























Interactive Weather Map New forecast layout! Learn more

10-Day Weather Forecast

Advertisements
Track Severe Weather on mobile